Split Lake, Canada
Current Conditions -  °F | °C
As of 11:00 PM on Friday 24 Oct 2014 (Local Time) from CYGX Reporting Station
Light Rain Light Rain  
Wind Chill: 38°   Ceiling: 400
Heat Index: 43°   Visibility: 15mi
Dew Point: 41°   Wind: 8mph
Humidity: 93%   Direction: 290°WNW
Pressure: 29.38"   Gusts: NA
Location:  56.25°N, 96.1°W
Report Text: CYGX 250400Z 29007KT 15SM -RADZ OVC004 06/05 A2938 RMK ST8 CIG RAG SLP955
Loading
Personal Weather Stations






























Interactive Weather Map
Tropical Storm Tracking
New forecast layout! Learn more

10-Day Weather Forecast

Advertisements
Track Severe Weather on mobile